KBGE

Decatur County Industrial Airpark

Bainbridge, Georgia, USA
METAR KBGE 181315Z AUTO 00000KT 7SM 05/04 A3015 RMK AO2 PWINO
Observed Flight Rules
Dec-18 @ 13:15 UTC (31 minutes ago)
Visibility
7 miles
Temperatures Readings
Current 5°C / 41°F
Dewpoint 4°C / 39°F
Humidity 93%
Altimeter 30.15" Hg
Pressure 1021 hPa
Elevation 43
METAR KBGE 181315Z AUTO 00000KT 7SM 05/04 A3015 RMK AO2 PWINO
Observed Flight Rules
Dec-18 @ 13:15 UTC
(31 minutes ago)
Temperature Dewpoint
5°C / 41°F 4°C / 39°F
Humidity Altimeter Pressure
93% 30.15" Hg 1021 hPa